createdAt,value
2022-09-28T00:04:51.823Z,7.90
2022-09-28T00:07:20.023Z,7.80
2022-09-28T00:09:48.313Z,7.90
2022-09-28T00:14:45.977Z,7.90
2022-09-28T00:17:16.038Z,7.90
2022-09-28T00:19:45.300Z,8.00
2022-09-28T00:22:15.333Z,8.00
2022-09-28T00:24:44.732Z,8.00
2022-09-28T00:27:13.383Z,8.00
2022-09-28T00:29:41.819Z,8.00
2022-09-28T00:32:15.851Z,8.00
2022-09-28T00:34:46.177Z,8.00
2022-09-28T00:39:45.098Z,8.00
2022-09-28T00:42:16.547Z,8.10
2022-09-28T00:44:49.057Z,8.10
2022-09-28T00:47:39.683Z,8.00
2022-09-28T00:50:14.514Z,8.10
2022-09-28T00:52:49.465Z,8.10
2022-09-28T00:55:22.019Z,8.40
2022-09-28T00:57:55.455Z,8.20
2022-09-28T01:00:24.605Z,8.10
2022-09-28T01:02:53.478Z,8.10
2022-09-28T01:05:24.392Z,8.20
2022-09-28T01:10:24.054Z,8.10
2022-09-28T01:12:52.952Z,8.10
2022-09-28T01:15:22.768Z,8.00
2022-09-28T01:18:02.113Z,8.10
2022-09-28T01:20:40.625Z,8.20
2022-09-28T01:23:46.283Z,8.10
2022-09-28T01:26:43.630Z,8.10
2022-09-28T01:29:18.824Z,8.20
2022-09-28T01:31:52.883Z,8.20
2022-09-28T01:34:30.306Z,8.20
2022-09-28T01:37:02.255Z,8.20
2022-09-28T01:39:36.295Z,8.00
2022-09-28T01:42:13.890Z,8.10
2022-09-28T01:44:46.675Z,8.20
2022-09-28T01:47:18.652Z,8.20
2022-09-28T01:49:50.784Z,8.20
2022-09-28T01:52:24.879Z,8.20
2022-09-28T01:54:58.806Z,8.10
2022-09-28T01:57:33.744Z,8.20
2022-09-28T02:00:07.914Z,8.30
2022-09-28T02:02:40.368Z,8.30
2022-09-28T02:05:14.027Z,8.40
2022-09-28T02:07:46.471Z,8.50
2022-09-28T02:10:18.073Z,8.40
2022-09-28T02:15:22.159Z,8.50
2022-09-28T02:20:22.345Z,8.60
2022-09-28T02:22:52.938Z,8.40
2022-09-28T02:25:26.015Z,8.50
2022-09-28T02:27:59.781Z,8.40
2022-09-28T02:30:30.405Z,8.40
2022-09-28T02:33:04.191Z,8.50
2022-09-28T02:35:34.146Z,8.50
2022-09-28T02:40:34.102Z,8.40
2022-09-28T02:43:14.023Z,8.50
2022-09-28T02:46:02.276Z,8.50
2022-09-28T02:49:00.138Z,8.40
2022-09-28T02:51:44.585Z,8.40
2022-09-28T02:54:31.082Z,8.30
2022-09-28T02:57:14.384Z,8.80
2022-09-28T02:59:51.837Z,8.30
2022-09-28T03:02:26.543Z,8.50
2022-09-28T03:05:10.858Z,8.40
2022-09-28T03:07:47.709Z,8.40
2022-09-28T03:10:20.657Z,8.30
2022-09-28T03:12:50.450Z,8.30
2022-09-28T03:15:25.744Z,8.30
2022-09-28T03:17:55.026Z,8.20
2022-09-28T03:20:23.229Z,8.10
2022-09-28T03:23:12.364Z,8.10
2022-09-28T03:25:41.543Z,8.70
2022-09-28T03:28:09.782Z,8.00
2022-09-28T03:30:39.444Z,8.20
2022-09-28T03:33:08.128Z,8.20
2022-09-28T03:35:36.478Z,8.20
2022-09-28T03:38:04.929Z,8.10
2022-09-28T03:40:33.269Z,8.30
2022-09-28T03:43:01.969Z,8.30
2022-09-28T03:45:30.322Z,8.30
2022-09-28T03:48:00.588Z,8.30
2022-09-28T03:50:29.097Z,8.20
2022-09-28T03:52:57.244Z,8.10
2022-09-28T03:55:25.393Z,8.10
2022-09-28T03:57:57.359Z,8.10
2022-09-28T04:00:25.712Z,8.00
2022-09-28T04:02:55.255Z,8.10
2022-09-28T04:05:25.352Z,8.10
2022-09-28T04:07:57.915Z,8.10
2022-09-28T04:10:26.493Z,8.00
2022-09-28T04:12:56.613Z,8.10
2022-09-28T04:15:25.860Z,8.10
2022-09-28T04:17:54.648Z,8.00
2022-09-28T04:20:24.706Z,8.10
2022-09-28T04:22:53.015Z,8.00
2022-09-28T04:25:21.244Z,8.00
2022-09-28T04:28:07.919Z,8.00
2022-09-28T04:30:36.265Z,7.90
2022-09-28T04:33:05.421Z,8.00
2022-09-28T04:35:35.446Z,7.90
2022-09-28T04:38:04.394Z,8.00
2022-09-28T04:40:32.940Z,7.90
2022-09-28T04:43:01.380Z,8.00
2022-09-28T04:45:29.988Z,7.90
2022-09-28T04:47:58.933Z,7.90
2022-09-28T04:50:36.548Z,7.90
2022-09-28T04:53:12.261Z,7.80
2022-09-28T04:55:42.089Z,7.70
2022-09-28T04:58:20.115Z,7.90
2022-09-28T05:01:01.530Z,7.80
2022-09-28T05:03:31.643Z,7.60
2022-09-28T05:06:01.019Z,7.60
2022-09-28T05:08:31.854Z,7.60
2022-09-28T05:11:01.662Z,7.70
2022-09-28T05:13:32.812Z,7.60
2022-09-28T05:16:05.227Z,7.60
2022-09-28T05:18:34.501Z,7.60
2022-09-28T05:21:03.685Z,7.70
2022-09-28T05:23:35.015Z,7.70
2022-09-28T05:26:03.949Z,7.80
2022-09-28T05:28:34.834Z,7.60
2022-09-28T05:31:05.510Z,7.60
2022-09-28T05:33:34.673Z,7.70
2022-09-28T05:36:03.852Z,7.70
2022-09-28T05:38:34.007Z,7.90
2022-09-28T05:43:36.583Z,7.80
2022-09-28T05:46:05.220Z,7.70
2022-09-28T05:48:34.369Z,7.70
2022-09-28T05:51:02.956Z,7.70
2022-09-28T05:53:31.276Z,7.90
2022-09-28T05:56:04.480Z,7.80
2022-09-28T05:58:32.884Z,8.00
2022-09-28T06:01:03.984Z,8.00
2022-09-28T06:03:32.612Z,8.00
2022-09-28T06:06:03.383Z,7.90
2022-09-28T06:08:34.336Z,8.00
2022-09-28T06:11:04.820Z,7.90
2022-09-28T06:13:33.482Z,7.90
2022-09-28T06:16:07.270Z,7.80
2022-09-28T06:18:36.350Z,7.80
2022-09-28T06:21:06.202Z,7.80
2022-09-28T06:23:48.235Z,7.70
2022-09-28T06:26:19.641Z,7.70
2022-09-28T06:28:49.180Z,7.70
2022-09-28T06:31:18.253Z,7.70
2022-09-28T06:33:47.458Z,7.70
2022-09-28T06:36:20.993Z,7.70
2022-09-28T06:39:04.044Z,7.70
2022-09-28T06:41:35.250Z,7.70
2022-09-28T06:51:37.943Z,7.90
2022-09-28T06:59:05.222Z,7.90
2022-09-28T07:01:35.789Z,8.00
2022-09-28T07:09:23.653Z,8.10
2022-09-28T07:11:58.130Z,8.00
2022-09-28T07:14:44.352Z,8.10
2022-09-28T07:22:18.989Z,8.20
2022-09-28T07:29:53.883Z,8.30
2022-09-28T07:37:24.336Z,8.40
2022-09-28T07:42:46.719Z,8.40
2022-09-28T07:45:15.456Z,8.40
2022-09-28T07:50:13.716Z,8.40
2022-09-28T07:55:14.262Z,8.50
2022-09-28T08:10:10.525Z,8.50
2022-09-28T08:12:40.707Z,8.50
2022-09-28T08:15:10.513Z,8.30
2022-09-28T08:17:40.058Z,8.70
2022-09-28T08:20:26.472Z,9.00
2022-09-28T08:22:54.578Z,8.70
2022-09-28T08:27:51.038Z,9.20
2022-09-28T08:32:50.420Z,8.70
2022-09-28T08:37:55.461Z,8.70
2022-09-28T08:40:26.113Z,8.80
2022-09-28T08:42:58.635Z,8.80
2022-09-28T08:45:29.315Z,8.80
2022-09-28T08:48:21.537Z,8.80
2022-09-28T08:50:57.968Z,8.70
2022-09-28T08:53:40.900Z,8.70
2022-09-28T08:56:27.942Z,8.80
2022-09-28T08:59:02.546Z,8.80
2022-09-28T09:01:37.447Z,8.80
2022-09-28T09:04:09.907Z,9.00
2022-09-28T09:06:53.415Z,9.00
2022-09-28T09:09:31.483Z,8.90
2022-09-28T09:12:09.159Z,8.90
2022-09-28T09:15:22.228Z,8.90
2022-09-28T09:18:01.051Z,8.90
2022-09-28T09:20:41.552Z,8.60
2022-09-28T09:23:18.021Z,8.20
2022-09-28T09:25:51.819Z,8.10
2022-09-28T09:28:46.194Z,8.00
2022-09-28T09:31:27.514Z,8.00
2022-09-28T09:34:14.190Z,7.80
2022-09-28T09:37:11.421Z,7.80
2022-09-28T09:39:54.307Z,7.80
2022-09-28T09:42:35.793Z,7.80
2022-09-28T09:45:47.611Z,7.70
2022-09-28T09:48:22.947Z,8.20
2022-09-28T09:50:54.205Z,8.00
2022-09-28T09:53:29.208Z,7.90
2022-09-28T09:56:03.659Z,8.00
2022-09-28T09:58:37.838Z,8.00
2022-09-28T10:01:10.371Z,7.90
2022-09-28T10:03:43.963Z,8.10
2022-09-28T10:06:17.339Z,8.10
2022-09-28T10:08:51.945Z,8.00
2022-09-28T10:11:24.446Z,8.00
2022-09-28T10:13:52.724Z,7.90
2022-09-28T10:16:21.350Z,8.10
2022-09-28T10:18:50.863Z,8.20
2022-09-28T10:21:23.318Z,8.10
2022-09-28T10:23:59.969Z,8.30
2022-09-28T10:26:36.317Z,8.30
2022-09-28T10:29:08.005Z,8.30
2022-09-28T10:31:41.620Z,8.30
2022-09-28T10:34:14.428Z,8.40
2022-09-28T10:36:53.169Z,8.30
2022-09-28T10:39:33.296Z,8.40
2022-09-28T10:42:06.164Z,8.50
2022-09-28T10:44:39.914Z,8.60
2022-09-28T10:47:10.623Z,8.60
2022-09-28T10:52:55.448Z,8.60
2022-09-28T10:58:47.681Z,8.60
2022-09-28T11:19:31.654Z,8.70
2022-09-28T11:22:45.298Z,8.70
2022-09-28T12:39:14.813Z,9.10
2022-09-28T12:41:51.573Z,9.10
2022-09-28T12:44:41.741Z,9.10
2022-09-28T12:47:29.881Z,9.10
2022-09-28T12:50:40.813Z,9.00
2022-09-28T12:53:41.858Z,8.90
2022-09-28T12:56:22.823Z,9.00
2022-09-28T12:59:05.334Z,9.00
2022-09-28T13:01:51.726Z,9.00
2022-09-28T13:04:44.755Z,8.90
2022-09-28T13:07:21.519Z,8.90
2022-09-28T13:10:15.060Z,8.80
2022-09-28T13:13:27.683Z,8.90
2022-09-28T13:19:26.162Z,9.00
2022-09-28T13:22:06.687Z,9.00
2022-09-28T13:33:09.413Z,8.90
2022-09-28T13:35:48.585Z,8.80
2022-09-28T13:38:50.780Z,8.70
2022-09-28T13:41:35.762Z,8.70
2022-09-28T13:44:47.335Z,8.60
2022-09-28T13:56:38.767Z,8.70
2022-09-28T13:59:18.613Z,8.70
2022-09-28T14:01:56.645Z,8.70
2022-09-28T14:11:40.633Z,8.70
2022-09-28T14:15:00.535Z,8.80
2022-09-28T14:18:25.216Z,10.30
2022-09-28T14:21:26.094Z,8.70
2022-09-28T14:30:56.308Z,8.80
2022-09-28T14:33:48.387Z,8.80
2022-09-28T14:47:02.487Z,8.60
2022-09-28T14:50:20.015Z,8.60
2022-09-28T14:53:04.939Z,8.70
2022-09-28T14:55:59.668Z,8.70
2022-09-28T14:58:42.736Z,8.70
2022-09-28T15:01:24.785Z,8.70
2022-09-28T15:04:04.862Z,8.70
2022-09-28T15:06:48.537Z,8.60
2022-09-28T15:09:43.616Z,8.70
2022-09-28T15:12:26.185Z,8.60
2022-09-28T15:15:11.418Z,8.60
2022-09-28T15:17:54.312Z,8.70
2022-09-28T15:20:30.565Z,8.60
2022-09-28T15:28:54.383Z,8.70
2022-09-28T15:32:19.329Z,8.70
2022-09-28T15:34:55.631Z,8.70
2022-09-28T15:37:29.777Z,8.60
2022-09-28T15:40:12.649Z,8.60
2022-09-28T15:45:32.960Z,8.60
2022-09-28T15:48:22.829Z,8.60
2022-09-28T15:51:05.937Z,8.60
2022-09-28T15:56:10.512Z,8.60
2022-09-28T15:58:39.950Z,8.50
2022-09-28T16:01:29.443Z,8.50
2022-09-28T16:14:28.071Z,8.40
2022-09-28T16:19:43.349Z,8.40
2022-09-28T16:30:34.578Z,8.30
2022-09-28T16:36:06.818Z,8.20
2022-09-28T16:44:21.291Z,8.20
2022-09-28T17:02:46.780Z,8.10
2022-09-28T17:08:20.156Z,8.10
2022-09-28T17:16:43.551Z,8.00
2022-09-28T17:19:21.051Z,8.00
2022-09-28T17:21:49.674Z,8.00
2022-09-28T17:29:18.071Z,7.90
2022-09-28T17:31:48.317Z,7.90
2022-09-28T17:39:20.176Z,7.90
2022-09-28T17:58:19.822Z,7.90
2022-09-28T18:00:51.187Z,7.90
2022-09-28T18:05:53.923Z,7.90
2022-09-28T18:08:22.981Z,7.90
2022-09-28T18:15:52.286Z,7.90
2022-09-28T18:38:42.085Z,7.80
2022-09-28T18:51:12.085Z,7.70
2022-09-28T18:56:11.721Z,7.70
2022-09-28T18:58:41.959Z,7.70
2022-09-28T19:04:02.460Z,7.70
2022-09-28T19:24:02.647Z,7.70
2022-09-28T19:26:31.616Z,7.70
2022-09-28T19:36:28.414Z,7.70
2022-09-28T19:39:03.215Z,7.70
2022-09-28T19:41:44.468Z,7.70
2022-09-28T19:44:15.891Z,7.70
2022-09-28T19:49:14.162Z,7.70
2022-09-28T19:52:11.010Z,7.70
2022-09-28T19:57:07.569Z,7.70
2022-09-28T20:04:33.385Z,7.60
2022-09-28T20:07:01.758Z,9.70
2022-09-28T20:17:05.902Z,7.70
2022-09-28T20:29:33.703Z,7.70
2022-09-28T20:34:33.492Z,7.70
2022-09-28T20:39:29.970Z,7.60
2022-09-28T20:41:58.058Z,7.60
2022-09-28T20:44:27.484Z,7.60
2022-09-28T20:46:56.727Z,10.80
2022-09-28T20:49:24.919Z,7.60
2022-09-28T20:51:53.290Z,7.60
2022-09-28T22:11:40.669Z,7.50
2022-09-28T22:21:35.991Z,7.40
2022-09-28T22:24:06.530Z,10.80
2022-09-28T22:26:36.811Z,7.40
2022-09-28T22:29:08.946Z,7.30
2022-09-28T22:31:39.278Z,7.40
2022-09-28T22:56:29.798Z,7.20
2022-09-28T23:01:30.042Z,7.30
2022-09-28T23:03:59.649Z,7.30
2022-09-28T23:06:30.806Z,7.30
2022-09-28T23:08:59.207Z,7.20
2022-09-28T23:18:57.092Z,7.40
2022-09-28T23:21:26.842Z,7.40
2022-09-28T23:23:57.740Z,7.40
2022-09-28T23:26:30.434Z,7.40
2022-09-28T23:31:29.737Z,7.40
2022-09-28T23:34:03.579Z,7.40
2022-09-28T23:39:01.562Z,7.40
2022-09-28T23:48:55.544Z,7.40
